This is the latest recevied weather packets stored in our database for station/object AI5KP-13. If no packets are shown the sender has not sent any weather packets the latest 1 day(s).
| Time | Temp. | Humidity | Pressure | Rain* | Wind** | Luminosity | Snow |
|---|---|---|---|---|---|---|---|
| 1778009198 | 17.22° C | 88% | 1005 hPa | 0 mm | 4.47 m/s, 339° | 42 W/m² | - |
| 1778008894 | 17.78° C | 87% | 1004.8 hPa | 0 mm | 3.58 m/s, 342° | 42 W/m² | - |
| 1778008593 | 20° C | 85% | 1003.9 hPa | 0 mm | 3.13 m/s, 7° | 108 W/m² | - |
| 1778008290 | 23.89° C | 77% | 1004 hPa | 0 mm | 3.13 m/s, 190° | 171 W/m² | - |
| 1778007986 | 23.33° C | 76% | 1004.1 hPa | 0 mm | 2.68 m/s, 157° | 355 W/m² | - |
| 1778007681 | 22.78° C | 78% | 1004.5 hPa | 0 mm | 1.79 m/s, 166° | 277 W/m² | - |
| 1778007378 | 22.78° C | 77% | 1004.2 hPa | 0 mm | 0.89 m/s, 211° | 431 W/m² | - |
| 1778007074 | 22.22° C | 81% | 1004.3 hPa | 0 mm | 2.24 m/s, 184° | 278 W/m² | - |
| 1778006771 | 23.33° C | 78% | 1004.4 hPa | 0 mm | 0.89 m/s, 117° | 375 W/m² | - |
| 1778006468 | 23.89° C | 77% | 1004.2 hPa | 0 mm | 2.24 m/s, 105° | 385 W/m² | - |
| 1778006164 | 23.33° C | 80% | 1004.2 hPa | 0 mm | 1.34 m/s, 205° | 449 W/m² | - |
| 1778005863 | 23.33° C | 77% | 1004.3 hPa | 0 mm | 4.02 m/s, 109° | 394 W/m² | - |
| 1778005558 | 23.33° C | 78% | 1004.2 hPa | 0 mm | 3.13 m/s, 175° | 373 W/m² | - |
| 1778005255 | 22.78° C | 78% | 1004.6 hPa | 0 mm | 2.24 m/s, 93° | 346 W/m² | - |
| 1778004953 | 22.78° C | 80% | 1004.6 hPa | 0 mm | 3.13 m/s, 185° | 437 W/m² | - |
| 1778004650 | 22.22° C | 81% | 1004.5 hPa | 0 mm | 4.47 m/s, 161° | 301 W/m² | - |
| 1778004345 | 22.78° C | 80% | 1004.6 hPa | 0 mm | 0.45 m/s, 203° | 344 W/m² | - |
| 1778004044 | 22.78° C | 79% | 1004.5 hPa | 0 mm | 0.89 m/s, 172° | 434 W/m² | - |
| 1778003743 | 22.78° C | 80% | 1004.5 hPa | 0 mm | 1.34 m/s, 136° | 379 W/m² | - |
| 1778003440 | 22.22° C | 81% | 1004.5 hPa | 0 mm | 0.89 m/s, 197° | 348 W/m² | - |
| 1778003137 | 21.67° C | 82% | 1004.6 hPa | 0 mm | 2.24 m/s, 174° | 317 W/m² | - |
| 1778002833 | 21.67° C | 81% | 1004.3 hPa | 0 mm | 3.13 m/s, 183° | 351 W/m² | - |
| 1778002530 | 21.67° C | 81% | 1004.2 hPa | 0 mm | 0.89 m/s, 125° | 393 W/m² | - |
| 1778002227 | 21.67° C | 82% | 1004.6 hPa | 0 mm | 1.34 m/s, 166° | 344 W/m² | - |
| 1778001925 | 21.67° C | 82% | 1004.6 hPa | 0 mm | 1.34 m/s, 154° | 318 W/m² | - |
* Rain latest hour (hover to see other rain measurements)
** Current wind speed in m/s (hover to see current wind gust speed)